sensor_id;sensor_type;location;lat;lon;timestamp;temperature;humidity
44117;DHT22;29781;49.480;8.512;2023-01-15T00:00:12;10.00;99.90
44117;DHT22;29781;49.480;8.512;2023-01-15T00:02:37;9.90;99.90
44117;DHT22;29781;49.480;8.512;2023-01-15T00:05:03;10.00;99.90
44117;DHT22;29781;49.480;8.512;2023-01-15T00:07:29;9.90;99.90
44117;DHT22;29781;49.480;8.512;2023-01-15T00:09:55;9.90;99.90
44117;DHT22;29781;49.480;8.512;2023-01-15T00:12:20;9.90;99.90
44117;DHT22;29781;49.480;8.512;2023-01-15T00:14:46;9.90;99.90
44117;DHT22;29781;49.480;8.512;2023-01-15T00:17:11;9.90;99.90
44117;DHT22;29781;49.480;8.512;2023-01-15T00:19:37;9.90;99.90
44117;DHT22;29781;49.480;8.512;2023-01-15T00:22:02;9.90;99.90
44117;DHT22;29781;49.480;8.512;2023-01-15T00:24:28;10.00;99.90
44117;DHT22;29781;49.480;8.512;2023-01-15T00:27:12;10.00;99.90
44117;DHT22;29781;49.480;8.512;2023-01-15T00:29:56;10.00;99.90
44117;DHT22;29781;49.480;8.512;2023-01-15T00:32:22;10.10;99.90
44117;DHT22;29781;49.480;8.512;2023-01-15T00:34:47;10.00;99.90
44117;DHT22;29781;49.480;8.512;2023-01-15T00:37:13;10.10;99.90
44117;DHT22;29781;49.480;8.512;2023-01-15T00:39:38;10.00;99.90
44117;DHT22;29781;49.480;8.512;2023-01-15T00:42:04;10.00;99.90
44117;DHT22;29781;49.480;8.512;2023-01-15T00:44:29;10.00;99.90
44117;DHT22;29781;49.480;8.512;2023-01-15T00:46:57;10.00;99.90
44117;DHT22;29781;49.480;8.512;2023-01-15T00:49:23;10.10;99.90
44117;DHT22;29781;49.480;8.512;2023-01-15T00:51:48;10.10;99.90
44117;DHT22;29781;49.480;8.512;2023-01-15T00:54:15;10.00;99.90
44117;DHT22;29781;49.480;8.512;2023-01-15T00:56:41;10.10;99.90
44117;DHT22;29781;49.480;8.512;2023-01-15T00:59:06;10.10;99.90
44117;DHT22;29781;49.480;8.512;2023-01-15T01:01:32;10.10;99.90
44117;DHT22;29781;49.480;8.512;2023-01-15T01:03:58;10.10;99.90
44117;DHT22;29781;49.480;8.512;2023-01-15T01:06:23;10.10;99.90
44117;DHT22;29781;49.480;8.512;2023-01-15T01:08:49;10.10;99.90
44117;DHT22;29781;49.480;8.512;2023-01-15T01:11:16;10.10;99.90
44117;DHT22;29781;49.480;8.512;2023-01-15T01:13:42;10.10;99.90
44117;DHT22;29781;49.480;8.512;2023-01-15T01:18:45;10.10;99.90
44117;DHT22;29781;49.480;8.512;2023-01-15T01:21:10;10.10;99.90
44117;DHT22;29781;49.480;8.512;2023-01-15T01:23:36;10.10;99.90
44117;DHT22;29781;49.480;8.512;2023-01-15T01:26:01;10.10;99.90
44117;DHT22;29781;49.480;8.512;2023-01-15T01:28:27;10.10;99.90
44117;DHT22;29781;49.480;8.512;2023-01-15T01:30:52;10.10;99.90
44117;DHT22;29781;49.480;8.512;2023-01-15T01:33:18;10.20;99.90
44117;DHT22;29781;49.480;8.512;2023-01-15T01:35:47;10.20;99.90
44117;DHT22;29781;49.480;8.512;2023-01-15T01:38:13;10.20;99.90
44117;DHT22;29781;49.480;8.512;2023-01-15T01:40:39;10.20;99.90
44117;DHT22;29781;49.480;8.512;2023-01-15T01:43:12;10.20;99.90
44117;DHT22;29781;49.480;8.512;2023-01-15T01:45:41;10.20;99.90
44117;DHT22;29781;49.480;8.512;2023-01-15T01:48:07;10.10;99.90
44117;DHT22;29781;49.480;8.512;2023-01-15T01:50:32;10.10;99.90
44117;DHT22;29781;49.480;8.512;2023-01-15T01:53:01;10.20;99.90
44117;DHT22;29781;49.480;8.512;2023-01-15T01:55:28;10.20;99.90
44117;DHT22;29781;49.480;8.512;2023-01-15T01:57:55;10.20;99.90
44117;DHT22;29781;49.480;8.512;2023-01-15T02:00:22;10.20;99.90
44117;DHT22;29781;49.480;8.512;2023-01-15T02:02:48;10.20;99.90
44117;DHT22;29781;49.480;8.512;2023-01-15T02:05:15;10.20;99.90
44117;DHT22;29781;49.480;8.512;2023-01-15T02:07:44;10.20;99.90
44117;DHT22;29781;49.480;8.512;2023-01-15T02:10:14;10.20;99.90
44117;DHT22;29781;49.480;8.512;2023-01-15T02:12:39;10.20;99.90
44117;DHT22;29781;49.480;8.512;2023-01-15T02:15:30;10.20;99.90
44117;DHT22;29781;49.480;8.512;2023-01-15T02:18:11;10.20;99.90
44117;DHT22;29781;49.480;8.512;2023-01-15T02:20:47;10.20;99.90
44117;DHT22;29781;49.480;8.512;2023-01-15T02:23:19;10.20;99.90
44117;DHT22;29781;49.480;8.512;2023-01-15T02:28:32;10.20;99.90
44117;DHT22;29781;49.480;8.512;2023-01-15T02:31:04;10.20;99.90
44117;DHT22;29781;49.480;8.512;2023-01-15T02:33:37;10.20;99.90
44117;DHT22;29781;49.480;8.512;2023-01-15T02:36:04;10.20;99.90
44117;DHT22;29781;49.480;8.512;2023-01-15T02:38:34;10.20;99.90
44117;DHT22;29781;49.480;8.512;2023-01-15T02:41:00;10.20;99.90
44117;DHT22;29781;49.480;8.512;2023-01-15T02:43:26;10.20;99.90
44117;DHT22;29781;49.480;8.512;2023-01-15T02:45:54;10.20;99.90
44117;DHT22;29781;49.480;8.512;2023-01-15T02:48:23;10.30;99.90
44117;DHT22;29781;49.480;8.512;2023-01-15T02:50:54;10.20;99.90
44117;DHT22;29781;49.480;8.512;2023-01-15T02:53:26;10.20;99.90
44117;DHT22;29781;49.480;8.512;2023-01-15T02:55:54;10.20;99.90
44117;DHT22;29781;49.480;8.512;2023-01-15T02:58:23;10.20;99.90
44117;DHT22;29781;49.480;8.512;2023-01-15T03:00:51;10.10;99.90
44117;DHT22;29781;49.480;8.512;2023-01-15T03:06:04;10.10;99.90
44117;DHT22;29781;49.480;8.512;2023-01-15T03:08:31;9.90;99.90
44117;DHT22;29781;49.480;8.512;2023-01-15T03:13:26;9.30;99.90
44117;DHT22;29781;49.480;8.512;2023-01-15T03:15:55;9.20;99.90
44117;DHT22;29781;49.480;8.512;2023-01-15T03:18:45;9.10;99.90
44117;DHT22;29781;49.480;8.512;2023-01-15T03:21:16;9.10;99.90
44117;DHT22;29781;49.480;8.512;2023-01-15T03:23:44;9.00;99.90
44117;DHT22;29781;49.480;8.512;2023-01-15T03:26:11;8.90;99.90
44117;DHT22;29781;49.480;8.512;2023-01-15T03:28:37;8.80;99.90
44117;DHT22;29781;49.480;8.512;2023-01-15T03:31:04;8.90;99.90
44117;DHT22;29781;49.480;8.512;2023-01-15T03:33:29;8.90;99.90
44117;DHT22;29781;49.480;8.512;2023-01-15T03:35:56;8.90;99.90
44117;DHT22;29781;49.480;8.512;2023-01-15T03:38:29;9.00;99.90
44117;DHT22;29781;49.480;8.512;2023-01-15T03:43:23;8.80;99.90
44117;DHT22;29781;49.480;8.512;2023-01-15T03:46:31;8.70;99.90
44117;DHT22;29781;49.480;8.512;2023-01-15T03:48:55;8.70;99.90
44117;DHT22;29781;49.480;8.512;2023-01-15T03:51:33;8.80;99.90
44117;DHT22;29781;49.480;8.512;2023-01-15T03:54:02;8.70;99.90
44117;DHT22;29781;49.480;8.512;2023-01-15T03:56:41;8.70;99.90
44117;DHT22;29781;49.480;8.512;2023-01-15T03:59:16;8.50;99.90
44117;DHT22;29781;49.480;8.512;2023-01-15T04:01:43;8.50;99.90
44117;DHT22;29781;49.480;8.512;2023-01-15T04:04:10;8.60;99.90
44117;DHT22;29781;49.480;8.512;2023-01-15T04:06:37;8.50;99.90
44117;DHT22;29781;49.480;8.512;2023-01-15T04:09:04;8.50;99.90
44117;DHT22;29781;49.480;8.512;2023-01-15T04:11:30;8.60;99.90
44117;DHT22;29781;49.480;8.512;2023-01-15T04:13:56;8.60;99.90
44117;DHT22;29781;49.480;8.512;2023-01-15T04:16:31;8.50;99.90
44117;DHT22;29781;49.480;8.512;2023-01-15T04:18:56;8.40;99.90
44117;DHT22;29781;49.480;8.512;2023-01-15T04:21:22;8.30;99.90
44117;DHT22;29781;49.480;8.512;2023-01-15T04:23:48;8.40;99.90
44117;DHT22;29781;49.480;8.512;2023-01-15T04:26:14;8.50;99.90
44117;DHT22;29781;49.480;8.512;2023-01-15T04:28:39;8.60;99.90
44117;DHT22;29781;49.480;8.512;2023-01-15T04:31:05;8.60;99.90
44117;DHT22;29781;49.480;8.512;2023-01-15T04:33:31;8.50;99.90
44117;DHT22;29781;49.480;8.512;2023-01-15T04:36:02;8.50;99.90
44117;DHT22;29781;49.480;8.512;2023-01-15T04:38:28;8.60;99.90
44117;DHT22;29781;49.480;8.512;2023-01-15T04:40:53;8.60;99.90
44117;DHT22;29781;49.480;8.512;2023-01-15T04:43:37;8.70;99.90
44117;DHT22;29781;49.480;8.512;2023-01-15T04:46:22;8.80;99.90
44117;DHT22;29781;49.480;8.512;2023-01-15T04:48:48;8.60;99.90
44117;DHT22;29781;49.480;8.512;2023-01-15T04:51:13;8.50;99.90
44117;DHT22;29781;49.480;8.512;2023-01-15T04:53:39;8.50;99.90
44117;DHT22;29781;49.480;8.512;2023-01-15T04:56:04;8.40;99.90
44117;DHT22;29781;49.480;8.512;2023-01-15T04:58:31;8.50;99.90
44117;DHT22;29781;49.480;8.512;2023-01-15T05:00:57;8.50;99.90
44117;DHT22;29781;49.480;8.512;2023-01-15T05:03:25;8.60;99.90
44117;DHT22;29781;49.480;8.512;2023-01-15T05:05:50;8.70;99.90
44117;DHT22;29781;49.480;8.512;2023-01-15T05:08:16;8.70;99.90
44117;DHT22;29781;49.480;8.512;2023-01-15T05:10:41;8.60;99.90
44117;DHT22;29781;49.480;8.512;2023-01-15T05:13:07;8.60;99.90
44117;DHT22;29781;49.480;8.512;2023-01-15T05:15:32;8.30;99.90
44117;DHT22;29781;49.480;8.512;2023-01-15T05:17:58;8.40;99.90
44117;DHT22;29781;49.480;8.512;2023-01-15T05:20:23;8.50;99.90
44117;DHT22;29781;49.480;8.512;2023-01-15T05:22:50;8.50;99.90
44117;DHT22;29781;49.480;8.512;2023-01-15T05:25:15;8.60;99.90
44117;DHT22;29781;49.480;8.512;2023-01-15T05:27:41;8.60;99.90
44117;DHT22;29781;49.480;8.512;2023-01-15T05:30:07;8.60;99.90
44117;DHT22;29781;49.480;8.512;2023-01-15T05:32:32;8.50;99.90
44117;DHT22;29781;49.480;8.512;2023-01-15T05:34:58;8.50;99.90
44117;DHT22;29781;49.480;8.512;2023-01-15T05:37:23;8.40;99.90
44117;DHT22;29781;49.480;8.512;2023-01-15T05:39:49;8.40;99.90
44117;DHT22;29781;49.480;8.512;2023-01-15T05:42:14;8.40;99.90
44117;DHT22;29781;49.480;8.512;2023-01-15T05:44:40;8.40;99.90
44117;DHT22;29781;49.480;8.512;2023-01-15T05:47:05;8.20;99.90
44117;DHT22;29781;49.480;8.512;2023-01-15T05:49:32;8.20;99.90
44117;DHT22;29781;49.480;8.512;2023-01-15T05:51:58;8.20;99.90
44117;DHT22;29781;49.480;8.512;2023-01-15T05:54:26;8.20;99.90
44117;DHT22;29781;49.480;8.512;2023-01-15T05:56:52;8.10;99.90
44117;DHT22;29781;49.480;8.512;2023-01-15T05:59:19;8.10;99.90
44117;DHT22;29781;49.480;8.512;2023-01-15T06:01:45;8.10;99.90
44117;DHT22;29781;49.480;8.512;2023-01-15T06:04:11;8.20;99.90
44117;DHT22;29781;49.480;8.512;2023-01-15T06:06:38;8.20;99.90
44117;DHT22;29781;49.480;8.512;2023-01-15T06:09:04;8.10;99.90
44117;DHT22;29781;49.480;8.512;2023-01-15T06:11:30;8.10;99.90
44117;DHT22;29781;49.480;8.512;2023-01-15T06:13:55;8.10;99.90
44117;DHT22;29781;49.480;8.512;2023-01-15T06:16:21;8.00;99.90
44117;DHT22;29781;49.480;8.512;2023-01-15T06:18:46;8.00;99.90
44117;DHT22;29781;49.480;8.512;2023-01-15T06:21:12;8.10;99.90
44117;DHT22;29781;49.480;8.512;2023-01-15T06:23:38;8.20;99.90
44117;DHT22;29781;49.480;8.512;2023-01-15T06:26:05;8.20;99.90
44117;DHT22;29781;49.480;8.512;2023-01-15T06:28:31;8.20;99.90
44117;DHT22;29781;49.480;8.512;2023-01-15T06:30:57;8.20;99.90
44117;DHT22;29781;49.480;8.512;2023-01-15T06:33:22;8.10;99.90
44117;DHT22;29781;49.480;8.512;2023-01-15T06:35:48;8.20;99.90
44117;DHT22;29781;49.480;8.512;2023-01-15T06:38:14;8.10;99.90
44117;DHT22;29781;49.480;8.512;2023-01-15T06:40:39;8.10;99.90
44117;DHT22;29781;49.480;8.512;2023-01-15T06:43:05;8.20;99.90
44117;DHT22;29781;49.480;8.512;2023-01-15T06:45:49;8.10;99.90
44117;DHT22;29781;49.480;8.512;2023-01-15T06:48:33;7.90;99.90
44117;DHT22;29781;49.480;8.512;2023-01-15T06:50:59;7.90;99.90
44117;DHT22;29781;49.480;8.512;2023-01-15T06:53:25;8.00;99.90
44117;DHT22;29781;49.480;8.512;2023-01-15T06:55:50;7.90;99.90
44117;DHT22;29781;49.480;8.512;2023-01-15T06:58:16;7.90;99.90
44117;DHT22;29781;49.480;8.512;2023-01-15T07:00:41;7.80;99.90
44117;DHT22;29781;49.480;8.512;2023-01-15T07:03:09;7.70;99.90
44117;DHT22;29781;49.480;8.512;2023-01-15T07:05:38;8.20;99.90
44117;DHT22;29781;49.480;8.512;2023-01-15T07:08:03;7.70;99.90
44117;DHT22;29781;49.480;8.512;2023-01-15T07:10:29;7.70;99.90
44117;DHT22;29781;49.480;8.512;2023-01-15T07:12:54;7.80;99.90
44117;DHT22;29781;49.480;8.512;2023-01-15T07:15:20;7.70;99.90
44117;DHT22;29781;49.480;8.512;2023-01-15T07:17:45;7.70;99.90
44117;DHT22;29781;49.480;8.512;2023-01-15T07:20:11;7.70;99.90
44117;DHT22;29781;49.480;8.512;2023-01-15T07:22:37;7.50;99.90
44117;DHT22;29781;49.480;8.512;2023-01-15T07:25:02;7.50;99.90
44117;DHT22;29781;49.480;8.512;2023-01-15T07:27:28;7.50;99.90
44117;DHT22;29781;49.480;8.512;2023-01-15T07:29:53;7.60;99.90
44117;DHT22;29781;49.480;8.512;2023-01-15T07:32:19;7.60;99.90
44117;DHT22;29781;49.480;8.512;2023-01-15T07:34:44;7.60;99.90
44117;DHT22;29781;49.480;8.512;2023-01-15T07:37:10;7.60;99.90
44117;DHT22;29781;49.480;8.512;2023-01-15T07:39:35;7.50;99.90
44117;DHT22;29781;49.480;8.512;2023-01-15T07:42:01;7.50;99.90
44117;DHT22;29781;49.480;8.512;2023-01-15T07:44:45;7.40;99.90
44117;DHT22;29781;49.480;8.512;2023-01-15T07:47:29;7.50;99.90
44117;DHT22;29781;49.480;8.512;2023-01-15T07:50:17;7.50;99.90
44117;DHT22;29781;49.480;8.512;2023-01-15T07:52:43;7.50;99.90
44117;DHT22;29781;49.480;8.512;2023-01-15T07:55:09;7.40;99.90
44117;DHT22;29781;49.480;8.512;2023-01-15T07:57:36;7.50;99.90
44117;DHT22;29781;49.480;8.512;2023-01-15T08:00:03;7.50;99.90
44117;DHT22;29781;49.480;8.512;2023-01-15T08:02:29;7.60;99.90
44117;DHT22;29781;49.480;8.512;2023-01-15T08:04:54;7.50;99.90
44117;DHT22;29781;49.480;8.512;2023-01-15T08:07:20;7.50;99.90
44117;DHT22;29781;49.480;8.512;2023-01-15T08:09:45;7.50;99.90
44117;DHT22;29781;49.480;8.512;2023-01-15T08:12:11;7.30;99.90
44117;DHT22;29781;49.480;8.512;2023-01-15T08:14:55;7.30;99.90
44117;DHT22;29781;49.480;8.512;2023-01-15T08:18:45;7.20;99.90
44117;DHT22;29781;49.480;8.512;2023-01-15T08:21:14;7.10;99.90
44117;DHT22;29781;49.480;8.512;2023-01-15T08:23:40;7.20;99.90
44117;DHT22;29781;49.480;8.512;2023-01-15T08:26:07;8.90;99.90
44117;DHT22;29781;49.480;8.512;2023-01-15T08:28:33;7.20;99.90
44117;DHT22;29781;49.480;8.512;2023-01-15T08:30:58;7.20;99.90
44117;DHT22;29781;49.480;8.512;2023-01-15T08:33:24;7.10;99.90
44117;DHT22;29781;49.480;8.512;2023-01-15T08:35:49;7.20;99.90
44117;DHT22;29781;49.480;8.512;2023-01-15T08:38:14;7.20;99.90
44117;DHT22;29781;49.480;8.512;2023-01-15T08:40:40;7.20;99.90
44117;DHT22;29781;49.480;8.512;2023-01-15T08:43:25;7.20;99.90
44117;DHT22;29781;49.480;8.512;2023-01-15T08:45:50;7.20;99.90
44117;DHT22;29781;49.480;8.512;2023-01-15T08:48:16;7.40;99.90
44117;DHT22;29781;49.480;8.512;2023-01-15T08:50:42;7.40;99.90
44117;DHT22;29781;49.480;8.512;2023-01-15T08:53:07;7.50;99.90
44117;DHT22;29781;49.480;8.512;2023-01-15T08:55:33;7.40;99.90
44117;DHT22;29781;49.480;8.512;2023-01-15T08:57:58;7.40;99.90
44117;DHT22;29781;49.480;8.512;2023-01-15T09:00:24;7.40;99.90
44117;DHT22;29781;49.480;8.512;2023-01-15T09:02:50;7.30;99.90
44117;DHT22;29781;49.480;8.512;2023-01-15T09:05:15;7.20;99.90
44117;DHT22;29781;49.480;8.512;2023-01-15T09:07:41;7.10;99.90
44117;DHT22;29781;49.480;8.512;2023-01-15T09:10:06;7.10;99.90
44117;DHT22;29781;49.480;8.512;2023-01-15T09:12:32;7.10;99.90
44117;DHT22;29781;49.480;8.512;2023-01-15T09:14:58;7.10;99.90
44117;DHT22;29781;49.480;8.512;2023-01-15T09:17:23;7.20;99.90
44117;DHT22;29781;49.480;8.512;2023-01-15T09:19:49;7.30;99.90
44117;DHT22;29781;49.480;8.512;2023-01-15T09:22:14;7.20;99.90
44117;DHT22;29781;49.480;8.512;2023-01-15T09:24:40;7.20;99.90
44117;DHT22;29781;49.480;8.512;2023-01-15T09:27:05;7.20;99.90
44117;DHT22;29781;49.480;8.512;2023-01-15T09:29:31;7.20;99.90
44117;DHT22;29781;49.480;8.512;2023-01-15T09:31:56;7.20;99.90
44117;DHT22;29781;49.480;8.512;2023-01-15T09:34:22;7.20;99.90
44117;DHT22;29781;49.480;8.512;2023-01-15T09:36:48;7.10;99.90
44117;DHT22;29781;49.480;8.512;2023-01-15T09:39:16;7.20;99.90
44117;DHT22;29781;49.480;8.512;2023-01-15T09:41:55;7.30;99.90
44117;DHT22;29781;49.480;8.512;2023-01-15T09:57:22;7.30;99.90
44117;DHT22;29781;49.480;8.512;2023-01-15T09:59:49;7.30;99.90
44117;DHT22;29781;49.480;8.512;2023-01-15T10:04:42;7.20;99.90
44117;DHT22;29781;49.480;8.512;2023-01-15T10:07:19;7.20;99.90
44117;DHT22;29781;49.480;8.512;2023-01-15T10:09:47;7.20;99.90
44117;DHT22;29781;49.480;8.512;2023-01-15T10:12:19;7.20;99.90
44117;DHT22;29781;49.480;8.512;2023-01-15T10:17:36;7.40;99.90
44117;DHT22;29781;49.480;8.512;2023-01-15T10:20:11;7.40;99.90
44117;DHT22;29781;49.480;8.512;2023-01-15T10:25:12;7.30;99.90
44117;DHT22;29781;49.480;8.512;2023-01-15T10:27:39;7.40;99.90
44117;DHT22;29781;49.480;8.512;2023-01-15T10:30:10;7.30;99.90
44117;DHT22;29781;49.480;8.512;2023-01-15T10:32:43;7.20;99.90
44117;DHT22;29781;49.480;8.512;2023-01-15T10:35:20;7.00;99.90
44117;DHT22;29781;49.480;8.512;2023-01-15T10:37:55;6.80;99.90
44117;DHT22;29781;49.480;8.512;2023-01-15T10:40:27;6.70;99.90
44117;DHT22;29781;49.480;8.512;2023-01-15T10:45:45;6.00;99.90
44117;DHT22;29781;49.480;8.512;2023-01-15T10:48:11;5.80;99.90
44117;DHT22;29781;49.480;8.512;2023-01-15T10:50:38;5.40;99.90
44117;DHT22;29781;49.480;8.512;2023-01-15T10:53:15;5.60;99.90
44117;DHT22;29781;49.480;8.512;2023-01-15T10:55:48;5.50;99.90
44117;DHT22;29781;49.480;8.512;2023-01-15T11:01:02;5.60;99.90
44117;DHT22;29781;49.480;8.512;2023-01-15T11:03:32;5.70;99.90
44117;DHT22;29781;49.480;8.512;2023-01-15T11:05:59;5.50;99.90
44117;DHT22;29781;49.480;8.512;2023-01-15T11:08:25;5.70;99.90
44117;DHT22;29781;49.480;8.512;2023-01-15T11:10:57;5.80;99.90
44117;DHT22;29781;49.480;8.512;2023-01-15T11:13:24;5.70;99.90
44117;DHT22;29781;49.480;8.512;2023-01-15T11:16:16;5.70;99.90
44117;DHT22;29781;49.480;8.512;2023-01-15T11:19:00;5.30;99.90
44117;DHT22;29781;49.480;8.512;2023-01-15T11:21:45;5.40;99.90
44117;DHT22;29781;49.480;8.512;2023-01-15T11:24:14;5.50;99.90
44117;DHT22;29781;49.480;8.512;2023-01-15T11:26:41;5.70;99.90
44117;DHT22;29781;49.480;8.512;2023-01-15T11:29:13;5.70;99.90
44117;DHT22;29781;49.480;8.512;2023-01-15T11:31:42;5.70;99.90
44117;DHT22;29781;49.480;8.512;2023-01-15T11:34:18;5.60;99.90
44117;DHT22;29781;49.480;8.512;2023-01-15T11:36:45;5.60;99.90
44117;DHT22;29781;49.480;8.512;2023-01-15T11:39:26;5.60;99.90
44117;DHT22;29781;49.480;8.512;2023-01-15T11:42:02;5.60;99.90
44117;DHT22;29781;49.480;8.512;2023-01-15T11:44:53;5.50;99.90
44117;DHT22;29781;49.480;8.512;2023-01-15T11:47:37;5.60;99.90
44117;DHT22;29781;49.480;8.512;2023-01-15T11:50:21;5.30;99.90
44117;DHT22;29781;49.480;8.512;2023-01-15T11:53:07;5.30;99.90
44117;DHT22;29781;49.480;8.512;2023-01-15T11:55:37;5.20;99.90
44117;DHT22;29781;49.480;8.512;2023-01-15T11:58:03;5.00;99.90
44117;DHT22;29781;49.480;8.512;2023-01-15T12:00:33;5.00;99.90
44117;DHT22;29781;49.480;8.512;2023-01-15T12:03:01;5.20;99.90
44117;DHT22;29781;49.480;8.512;2023-01-15T12:05:29;5.10;99.90
44117;DHT22;29781;49.480;8.512;2023-01-15T12:07:56;5.00;99.90
44117;DHT22;29781;49.480;8.512;2023-01-15T12:10:26;5.00;99.90
44117;DHT22;29781;49.480;8.512;2023-01-15T12:18:25;5.30;99.90
44117;DHT22;29781;49.480;8.512;2023-01-15T12:20:55;5.30;99.90
44117;DHT22;29781;49.480;8.512;2023-01-15T12:26:00;5.40;99.90
44117;DHT22;29781;49.480;8.512;2023-01-15T12:28:34;5.40;99.90
44117;DHT22;29781;49.480;8.512;2023-01-15T12:31:03;5.60;99.90
44117;DHT22;29781;49.480;8.512;2023-01-15T12:33:46;5.80;99.90
44117;DHT22;29781;49.480;8.512;2023-01-15T12:36:33;5.90;99.90
44117;DHT22;29781;49.480;8.512;2023-01-15T12:41:29;5.80;99.90
44117;DHT22;29781;49.480;8.512;2023-01-15T12:44:15;6.00;99.90
44117;DHT22;29781;49.480;8.512;2023-01-15T12:47:02;6.60;99.90
44117;DHT22;29781;49.480;8.512;2023-01-15T12:49:30;6.70;99.90
44117;DHT22;29781;49.480;8.512;2023-01-15T12:51:59;6.80;99.90
44117;DHT22;29781;49.480;8.512;2023-01-15T12:54:27;6.70;99.90
44117;DHT22;29781;49.480;8.512;2023-01-15T12:57:07;7.00;99.90
44117;DHT22;29781;49.480;8.512;2023-01-15T12:59:38;7.00;99.90
44117;DHT22;29781;49.480;8.512;2023-01-15T13:02:14;7.10;99.90
44117;DHT22;29781;49.480;8.512;2023-01-15T13:12:31;7.00;99.90
44117;DHT22;29781;49.480;8.512;2023-01-15T13:14:57;7.10;99.90
44117;DHT22;29781;49.480;8.512;2023-01-15T13:17:34;7.20;99.90
44117;DHT22;29781;49.480;8.512;2023-01-15T13:20:24;7.20;99.90
44117;DHT22;29781;49.480;8.512;2023-01-15T13:23:02;7.30;99.90
44117;DHT22;29781;49.480;8.512;2023-01-15T13:33:11;7.40;99.90
44117;DHT22;29781;49.480;8.512;2023-01-15T13:35:42;7.30;99.90
44117;DHT22;29781;49.480;8.512;2023-01-15T13:38:15;7.40;99.90
44117;DHT22;29781;49.480;8.512;2023-01-15T13:40:42;7.40;99.90
44117;DHT22;29781;49.480;8.512;2023-01-15T13:43:47;7.40;99.90
44117;DHT22;29781;49.480;8.512;2023-01-15T13:46:07;7.60;99.90
44117;DHT22;29781;49.480;8.512;2023-01-15T13:48:36;7.60;99.90
44117;DHT22;29781;49.480;8.512;2023-01-15T13:51:05;7.50;99.90
44117;DHT22;29781;49.480;8.512;2023-01-15T13:53:32;7.50;99.90
44117;DHT22;29781;49.480;8.512;2023-01-15T13:55:59;7.60;99.90
44117;DHT22;29781;49.480;8.512;2023-01-15T13:58:30;7.50;99.90
44117;DHT22;29781;49.480;8.512;2023-01-15T14:01:03;7.60;99.90
44117;DHT22;29781;49.480;8.512;2023-01-15T14:03:29;7.50;99.90
44117;DHT22;29781;49.480;8.512;2023-01-15T14:05:56;7.40;99.90
44117;DHT22;29781;49.480;8.512;2023-01-15T14:08:24;7.60;99.90
44117;DHT22;29781;49.480;8.512;2023-01-15T14:10:49;7.60;99.90
44117;DHT22;29781;49.480;8.512;2023-01-15T14:32:15;7.50;99.90
44117;DHT22;29781;49.480;8.512;2023-01-15T14:34:59;7.50;99.90
44117;DHT22;29781;49.480;8.512;2023-01-15T14:37:30;7.30;99.90
44117;DHT22;29781;49.480;8.512;2023-01-15T14:39:59;7.40;99.90
44117;DHT22;29781;49.480;8.512;2023-01-15T14:47:45;7.50;99.90
44117;DHT22;29781;49.480;8.512;2023-01-15T14:50:25;7.60;99.90
44117;DHT22;29781;49.480;8.512;2023-01-15T14:52:56;7.60;99.90
44117;DHT22;29781;49.480;8.512;2023-01-15T14:55:23;7.50;99.90
44117;DHT22;29781;49.480;8.512;2023-01-15T14:57:56;7.70;99.90
44117;DHT22;29781;49.480;8.512;2023-01-15T15:00:22;7.70;99.90
44117;DHT22;29781;49.480;8.512;2023-01-15T15:02:49;7.70;99.90
44117;DHT22;29781;49.480;8.512;2023-01-15T15:05:15;7.60;99.90
44117;DHT22;29781;49.480;8.512;2023-01-15T15:07:42;7.40;99.90
44117;DHT22;29781;49.480;8.512;2023-01-15T15:10:13;7.40;99.90
44117;DHT22;29781;49.480;8.512;2023-01-15T15:15:20;7.30;99.90
44117;DHT22;29781;49.480;8.512;2023-01-15T15:26:05;7.20;99.90
44117;DHT22;29781;49.480;8.512;2023-01-15T15:28:31;7.10;99.90
44117;DHT22;29781;49.480;8.512;2023-01-15T15:30:57;7.10;99.90
44117;DHT22;29781;49.480;8.512;2023-01-15T15:33:27;7.10;99.90
44117;DHT22;29781;49.480;8.512;2023-01-15T15:35:54;7.00;99.90
44117;DHT22;29781;49.480;8.512;2023-01-15T15:38:21;7.00;99.90
44117;DHT22;29781;49.480;8.512;2023-01-15T15:40:51;7.00;99.90
44117;DHT22;29781;49.480;8.512;2023-01-15T15:43:19;6.80;99.90
44117;DHT22;29781;49.480;8.512;2023-01-15T15:46:17;6.80;99.90
44117;DHT22;29781;49.480;8.512;2023-01-15T15:49:05;6.80;99.90
44117;DHT22;29781;49.480;8.512;2023-01-15T15:54:03;6.80;99.90
44117;DHT22;29781;49.480;8.512;2023-01-15T15:56:30;6.70;99.90
44117;DHT22;29781;49.480;8.512;2023-01-15T15:58:56;6.80;99.90
44117;DHT22;29781;49.480;8.512;2023-01-15T16:01:23;6.80;99.90
44117;DHT22;29781;49.480;8.512;2023-01-15T16:03:49;6.90;99.90
44117;DHT22;29781;49.480;8.512;2023-01-15T16:06:18;6.80;99.90
44117;DHT22;29781;49.480;8.512;2023-01-15T16:08:50;6.90;99.90
44117;DHT22;29781;49.480;8.512;2023-01-15T16:11:16;6.90;99.90
44117;DHT22;29781;49.480;8.512;2023-01-15T16:13:48;6.90;99.90
44117;DHT22;29781;49.480;8.512;2023-01-15T16:16:15;6.80;99.90
44117;DHT22;29781;49.480;8.512;2023-01-15T16:18:43;6.80;99.90
44117;DHT22;29781;49.480;8.512;2023-01-15T16:21:15;6.80;99.90
44117;DHT22;29781;49.480;8.512;2023-01-15T16:23:41;6.80;99.90
44117;DHT22;29781;49.480;8.512;2023-01-15T16:26:11;6.80;99.90
44117;DHT22;29781;49.480;8.512;2023-01-15T16:28:39;6.80;99.90
44117;DHT22;29781;49.480;8.512;2023-01-15T16:31:08;6.80;99.90
44117;DHT22;29781;49.480;8.512;2023-01-15T16:33:36;6.80;99.90
44117;DHT22;29781;49.480;8.512;2023-01-15T16:36:02;6.80;99.90
44117;DHT22;29781;49.480;8.512;2023-01-15T16:38:33;6.80;99.90
44117;DHT22;29781;49.480;8.512;2023-01-15T16:41:00;6.80;99.90
44117;DHT22;29781;49.480;8.512;2023-01-15T16:43:26;6.80;99.90
44117;DHT22;29781;49.480;8.512;2023-01-15T16:46:05;8.10;99.90
44117;DHT22;29781;49.480;8.512;2023-01-15T16:48:37;6.70;99.90
44117;DHT22;29781;49.480;8.512;2023-01-15T16:51:23;6.80;99.90
44117;DHT22;29781;49.480;8.512;2023-01-15T16:53:53;6.80;99.90
44117;DHT22;29781;49.480;8.512;2023-01-15T16:56:26;6.90;99.90
44117;DHT22;29781;49.480;8.512;2023-01-15T16:58:52;6.90;99.90
44117;DHT22;29781;49.480;8.512;2023-01-15T17:04:32;6.80;99.90
44117;DHT22;29781;49.480;8.512;2023-01-15T17:09:24;6.90;99.90
44117;DHT22;29781;49.480;8.512;2023-01-15T17:11:50;6.90;99.90
44117;DHT22;29781;49.480;8.512;2023-01-15T17:16:48;6.90;99.90
44117;DHT22;29781;49.480;8.512;2023-01-15T17:19:34;6.90;99.90
44117;DHT22;29781;49.480;8.512;2023-01-15T17:21:59;6.80;99.90
44117;DHT22;29781;49.480;8.512;2023-01-15T17:24:25;7.00;99.90
44117;DHT22;29781;49.480;8.512;2023-01-15T17:26:51;6.90;99.90
44117;DHT22;29781;49.480;8.512;2023-01-15T17:29:17;7.00;99.90
44117;DHT22;29781;49.480;8.512;2023-01-15T17:31:42;6.90;99.90
44117;DHT22;29781;49.480;8.512;2023-01-15T17:34:10;6.90;99.90
44117;DHT22;29781;49.480;8.512;2023-01-15T17:36:36;6.80;99.90
44117;DHT22;29781;49.480;8.512;2023-01-15T17:39:01;6.90;99.90
44117;DHT22;29781;49.480;8.512;2023-01-15T17:41:27;6.90;99.90
44117;DHT22;29781;49.480;8.512;2023-01-15T17:43:53;6.90;99.90
44117;DHT22;29781;49.480;8.512;2023-01-15T17:46:18;6.80;99.90